sensor_id;sensor_type;location;lat;lon;timestamp;pressure;altitude;pressure_sealevel;temperature;humidity
36852;BME280;22784;52.476;13.424;2022-07-06T00:03:15;101409.63;;;22.91;37.49
36852;BME280;22784;52.476;13.424;2022-07-06T00:07:18;101399.22;;;22.82;37.28
36852;BME280;22784;52.476;13.424;2022-07-06T00:11:23;101420.00;;;22.91;37.33
36852;BME280;22784;52.476;13.424;2022-07-06T00:15:27;101417.34;;;22.87;37.75
36852;BME280;22784;52.476;13.424;2022-07-06T00:19:33;101417.06;;;22.85;37.91
36852;BME280;22784;52.476;13.424;2022-07-06T00:23:37;101419.53;;;22.83;38.04
36852;BME280;22784;52.476;13.424;2022-07-06T00:27:41;101414.84;;;22.80;38.54
36852;BME280;22784;52.476;13.424;2022-07-06T00:31:45;101367.28;;;22.47;38.44
36852;BME280;22784;52.476;13.424;2022-07-06T00:35:51;101408.94;;;22.69;38.44
36852;BME280;22784;52.476;13.424;2022-07-06T00:39:55;101408.47;;;22.61;38.75
36852;BME280;22784;52.476;13.424;2022-07-06T00:43:58;101420.09;;;22.69;38.85
36852;BME280;22784;52.476;13.424;2022-07-06T00:48:02;101384.44;;;22.45;38.70
36852;BME280;22784;52.476;13.424;2022-07-06T00:52:08;101411.28;;;22.61;39.29
36852;BME280;22784;52.476;13.424;2022-07-06T00:56:13;101402.44;;;22.54;38.71
36852;BME280;22784;52.476;13.424;2022-07-06T01:00:19;101416.84;;;22.61;38.97
36852;BME280;22784;52.476;13.424;2022-07-06T01:04:23;101426.88;;;22.59;39.34
36852;BME280;22784;52.476;13.424;2022-07-06T01:08:29;101434.16;;;22.56;39.39
36852;BME280;22784;52.476;13.424;2022-07-06T01:12:34;101424.38;;;22.52;39.42
36852;BME280;22784;52.476;13.424;2022-07-06T01:16:38;101415.56;;;22.44;39.33
36852;BME280;22784;52.476;13.424;2022-07-06T01:20:45;101412.31;;;22.45;39.62
36852;BME280;22784;52.476;13.424;2022-07-06T01:24:48;101411.84;;;22.38;39.81
36852;BME280;22784;52.476;13.424;2022-07-06T01:28:52;101416.16;;;22.39;39.92
36852;BME280;22784;52.476;13.424;2022-07-06T01:32:56;101416.75;;;22.34;40.32
36852;BME280;22784;52.476;13.424;2022-07-06T01:37:02;101421.09;;;22.26;40.19
36852;BME280;22784;52.476;13.424;2022-07-06T01:41:06;101391.63;;;22.07;40.19
36852;BME280;22784;52.476;13.424;2022-07-06T01:45:11;101417.53;;;22.25;40.45
36852;BME280;22784;52.476;13.424;2022-07-06T01:49:16;101414.75;;;22.25;40.27
36852;BME280;22784;52.476;13.424;2022-07-06T01:53:22;101410.41;;;22.24;40.35
36852;BME280;22784;52.476;13.424;2022-07-06T01:57:25;101405.28;;;22.23;40.20
36852;BME280;22784;52.476;13.424;2022-07-06T02:01:29;101417.19;;;22.23;40.61
36852;BME280;22784;52.476;13.424;2022-07-06T02:05:33;101410.34;;;22.15;40.01
36852;BME280;22784;52.476;13.424;2022-07-06T02:09:39;101428.50;;;22.20;40.14
36852;BME280;22784;52.476;13.424;2022-07-06T02:13:43;101431.88;;;22.15;39.54
36852;BME280;22784;52.476;13.424;2022-07-06T02:17:47;101429.81;;;22.06;39.61
36852;BME280;22784;52.476;13.424;2022-07-06T02:21:50;101456.16;;;22.14;39.80
36852;BME280;22784;52.476;13.424;2022-07-06T02:25:57;101456.75;;;22.09;41.20
36852;BME280;22784;52.476;13.424;2022-07-06T02:30:01;101454.25;;;22.02;42.88
36852;BME280;22784;52.476;13.424;2022-07-06T02:34:06;101463.44;;;21.90;43.20
36852;BME280;22784;52.476;13.424;2022-07-06T02:38:10;101459.19;;;21.76;43.70
36852;BME280;22784;52.476;13.424;2022-07-06T02:42:16;101457.13;;;21.68;44.39
36852;BME280;22784;52.476;13.424;2022-07-06T02:46:20;101478.41;;;21.61;44.47
36852;BME280;22784;52.476;13.424;2022-07-06T02:50:25;101467.56;;;21.54;45.33
36852;BME280;22784;52.476;13.424;2022-07-06T02:54:30;101461.13;;;21.45;45.73
36852;BME280;22784;52.476;13.424;2022-07-06T02:58:36;101457.06;;;21.37;45.59
36852;BME280;22784;52.476;13.424;2022-07-06T03:02:40;101472.41;;;21.41;46.16
36852;BME280;22784;52.476;13.424;2022-07-06T03:06:45;101466.88;;;21.29;46.58
36852;BME280;22784;52.476;13.424;2022-07-06T03:10:49;101476.91;;;21.26;46.76
36852;BME280;22784;52.476;13.424;2022-07-06T03:14:55;101485.25;;;21.26;47.20
36852;BME280;22784;52.476;13.424;2022-07-06T03:18:59;101493.13;;;21.28;47.47
36852;BME280;22784;52.476;13.424;2022-07-06T03:23:03;101489.25;;;21.25;47.21
36852;BME280;22784;52.476;13.424;2022-07-06T03:27:07;101485.50;;;21.19;47.30
36852;BME280;22784;52.476;13.424;2022-07-06T03:31:13;101488.59;;;21.21;47.63
36852;BME280;22784;52.476;13.424;2022-07-06T03:35:16;101474.25;;;21.10;47.41
36852;BME280;22784;52.476;13.424;2022-07-06T03:39:22;101483.50;;;21.19;47.42
36852;BME280;22784;52.476;13.424;2022-07-06T03:43:30;101493.50;;;21.17;47.46
36852;BME280;22784;52.476;13.424;2022-07-06T03:47:36;101493.50;;;21.17;47.43
36852;BME280;22784;52.476;13.424;2022-07-06T03:51:40;101497.16;;;21.14;47.38
36852;BME280;22784;52.476;13.424;2022-07-06T03:55:44;101484.94;;;21.11;47.40
36852;BME280;22784;52.476;13.424;2022-07-06T04:00:10;101491.22;;;21.03;46.95
36852;BME280;22784;52.476;13.424;2022-07-06T04:04:23;101429.50;;;20.61;47.60
36852;BME280;22784;52.476;13.424;2022-07-06T04:08:27;101469.09;;;20.87;47.38
36852;BME280;22784;52.476;13.424;2022-07-06T04:12:39;101490.63;;;21.08;47.24
36852;BME280;22784;52.476;13.424;2022-07-06T04:16:43;101490.63;;;21.08;47.24
36852;BME280;22784;52.476;13.424;2022-07-06T04:20:49;101487.50;;;21.06;47.18
36852;BME280;22784;52.476;13.424;2022-07-06T04:24:53;101477.31;;;21.03;46.95
36852;BME280;22784;52.476;13.424;2022-07-06T04:28:57;101496.63;;;21.19;46.61
36852;BME280;22784;52.476;13.424;2022-07-06T04:33:03;101471.47;;;21.10;46.24
36852;BME280;22784;52.476;13.424;2022-07-06T04:37:11;101489.28;;;21.12;46.49
36852;BME280;22784;52.476;13.424;2022-07-06T04:41:15;101489.63;;;21.14;46.88
36852;BME280;22784;52.476;13.424;2022-07-06T04:45:19;101484.72;;;21.06;46.61
36852;BME280;22784;52.476;13.424;2022-07-06T04:49:22;101481.81;;;21.09;46.68
36852;BME280;22784;52.476;13.424;2022-07-06T04:53:30;101485.50;;;21.19;46.84
36852;BME280;22784;52.476;13.424;2022-07-06T04:57:34;101474.13;;;21.26;46.35
36852;BME280;22784;52.476;13.424;2022-07-06T05:01:39;101477.75;;;21.36;46.34
36852;BME280;22784;52.476;13.424;2022-07-06T05:05:46;101494.63;;;21.41;46.11
36852;BME280;22784;52.476;13.424;2022-07-06T05:09:56;101491.72;;;21.45;45.90
36852;BME280;22784;52.476;13.424;2022-07-06T05:14:00;101483.53;;;21.41;45.90
36852;BME280;22784;52.476;13.424;2022-07-06T05:18:04;101503.91;;;21.60;45.53
36852;BME280;22784;52.476;13.424;2022-07-06T05:22:09;101504.63;;;21.73;44.84
36852;BME280;22784;52.476;13.424;2022-07-06T05:26:16;101495.09;;;21.83;44.74
36852;BME280;22784;52.476;13.424;2022-07-06T05:30:21;101488.34;;;21.93;44.54
36852;BME280;22784;52.476;13.424;2022-07-06T05:34:26;101486.63;;;22.09;44.09
36852;BME280;22784;52.476;13.424;2022-07-06T05:38:30;101477.84;;;22.19;43.68
36852;BME280;22784;52.476;13.424;2022-07-06T05:42:37;101474.81;;;22.35;42.91
36852;BME280;22784;52.476;13.424;2022-07-06T05:46:42;101485.56;;;22.55;42.57
36852;BME280;22784;52.476;13.424;2022-07-06T05:50:46;101468.84;;;22.64;42.38
36852;BME280;22784;52.476;13.424;2022-07-06T05:54:47;101486.09;;;22.81;41.73
36852;BME280;22784;52.476;13.424;2022-07-06T05:58:54;101484.41;;;22.93;41.23
36852;BME280;22784;52.476;13.424;2022-07-06T06:02:59;101479.31;;;23.00;40.89
36852;BME280;22784;52.476;13.424;2022-07-06T06:07:03;101462.28;;;22.89;40.82
36852;BME280;22784;52.476;13.424;2022-07-06T06:11:07;101490.78;;;23.11;40.98
36852;BME280;22784;52.476;13.424;2022-07-06T06:15:13;101492.81;;;23.20;40.44
36852;BME280;22784;52.476;13.424;2022-07-06T06:19:17;101489.88;;;23.33;40.80
36852;BME280;22784;52.476;13.424;2022-07-06T06:23:21;101488.03;;;23.48;40.18
36852;BME280;22784;52.476;13.424;2022-07-06T06:27:24;101488.94;;;23.63;40.20
36852;BME280;22784;52.476;13.424;2022-07-06T06:31:30;101495.13;;;23.76;40.10
36852;BME280;22784;52.476;13.424;2022-07-06T06:35:34;101492.47;;;23.91;39.09
36852;BME280;22784;52.476;13.424;2022-07-06T06:39:38;101489.31;;;23.98;39.57
36852;BME280;22784;52.476;13.424;2022-07-06T06:43:42;101479.16;;;23.77;39.50
36852;BME280;22784;52.476;13.424;2022-07-06T06:47:51;101482.75;;;23.50;39.86
36852;BME280;22784;52.476;13.424;2022-07-06T06:51:55;101500.56;;;23.61;39.31
36852;BME280;22784;52.476;13.424;2022-07-06T06:55:59;101495.75;;;23.44;39.26
36852;BME280;22784;52.476;13.424;2022-07-06T07:00:04;101496.66;;;23.77;39.10
36852;BME280;22784;52.476;13.424;2022-07-06T07:04:11;101499.97;;;24.18;38.72
36852;BME280;22784;52.476;13.424;2022-07-06T07:08:14;101500.44;;;24.58;37.35
36852;BME280;22784;52.476;13.424;2022-07-06T07:12:18;101492.72;;;24.77;36.66
36852;BME280;22784;52.476;13.424;2022-07-06T07:16:22;101506.22;;;24.78;36.91
36852;BME280;22784;52.476;13.424;2022-07-06T07:20:28;101476.63;;;24.96;36.35
36852;BME280;22784;52.476;13.424;2022-07-06T07:24:34;101508.94;;;24.97;35.95
36852;BME280;22784;52.476;13.424;2022-07-06T07:28:37;101497.25;;;24.41;36.43
36852;BME280;22784;52.476;13.424;2022-07-06T07:32:43;101501.88;;;24.77;36.63
36852;BME280;22784;52.476;13.424;2022-07-06T07:36:54;101501.28;;;24.40;36.55
36852;BME280;22784;52.476;13.424;2022-07-06T07:40:58;101507.16;;;24.00;36.86
36852;BME280;22784;52.476;13.424;2022-07-06T07:45:02;101515.91;;;23.66;37.31
36852;BME280;22784;52.476;13.424;2022-07-06T07:49:06;101522.25;;;23.39;36.71
36852;BME280;22784;52.476;13.424;2022-07-06T07:53:13;101512.72;;;24.09;35.87
36852;BME280;22784;52.476;13.424;2022-07-06T07:57:17;101513.84;;;24.45;34.99
36852;BME280;22784;52.476;13.424;2022-07-06T08:01:20;101514.81;;;24.42;34.71
36852;BME280;22784;52.476;13.424;2022-07-06T08:05:24;101509.53;;;24.44;34.93
36852;BME280;22784;52.476;13.424;2022-07-06T08:09:30;101510.19;;;24.63;34.76
36852;BME280;22784;52.476;13.424;2022-07-06T08:13:34;101509.94;;;24.52;34.30
36852;BME280;22784;52.476;13.424;2022-07-06T08:17:37;101499.00;;;24.63;33.56
36852;BME280;22784;52.476;13.424;2022-07-06T08:21:42;101503.44;;;24.78;33.20
36852;BME280;22784;52.476;13.424;2022-07-06T08:25:49;101518.31;;;24.84;33.41
36852;BME280;22784;52.476;13.424;2022-07-06T08:29:52;101517.56;;;25.46;32.90
36852;BME280;22784;52.476;13.424;2022-07-06T08:33:56;101517.75;;;25.43;32.02
36852;BME280;22784;52.476;13.424;2022-07-06T08:38:00;101527.91;;;25.16;32.48
36852;BME280;22784;52.476;13.424;2022-07-06T08:42:07;101521.66;;;25.75;31.21
36852;BME280;22784;52.476;13.424;2022-07-06T08:46:13;101520.69;;;25.63;30.33
36852;BME280;22784;52.476;13.424;2022-07-06T08:50:18;101530.53;;;25.20;30.04
36852;BME280;22784;52.476;13.424;2022-07-06T08:54:22;101523.72;;;24.88;30.89
36852;BME280;22784;52.476;13.424;2022-07-06T08:58:28;101506.38;;;24.75;32.05
36852;BME280;22784;52.476;13.424;2022-07-06T09:02:34;101514.03;;;24.98;31.80
36852;BME280;22784;52.476;13.424;2022-07-06T09:06:41;101508.41;;;24.74;31.41
36852;BME280;22784;52.476;13.424;2022-07-06T09:10:46;101520.81;;;24.50;31.71
36852;BME280;22784;52.476;13.424;2022-07-06T09:14:54;101496.16;;;23.97;32.72
36852;BME280;22784;52.476;13.424;2022-07-06T09:19:04;101533.81;;;24.20;32.23
36852;BME280;22784;52.476;13.424;2022-07-06T09:23:08;101531.94;;;24.17;30.68
36852;BME280;22784;52.476;13.424;2022-07-06T09:27:16;101509.50;;;24.02;30.53
36852;BME280;22784;52.476;13.424;2022-07-06T09:31:23;101532.53;;;24.30;30.03
36852;BME280;22784;52.476;13.424;2022-07-06T09:35:28;101519.06;;;24.10;30.23
36852;BME280;22784;52.476;13.424;2022-07-06T09:39:32;101525.88;;;24.27;29.84
36852;BME280;22784;52.476;13.424;2022-07-06T09:43:36;101511.75;;;24.31;29.36
36852;BME280;22784;52.476;13.424;2022-07-06T09:47:48;101527.09;;;24.35;29.27
36852;BME280;22784;52.476;13.424;2022-07-06T09:51:54;101513.97;;;24.08;29.54
36852;BME280;22784;52.476;13.424;2022-07-06T09:55:57;101527.03;;;24.02;29.73
36852;BME280;22784;52.476;13.424;2022-07-06T10:00:07;101504.56;;;23.88;30.42
36852;BME280;22784;52.476;13.424;2022-07-06T10:04:15;101524.22;;;24.21;30.64
36852;BME280;22784;52.476;13.424;2022-07-06T10:08:21;101527.59;;;24.25;30.48
36852;BME280;22784;52.476;13.424;2022-07-06T10:12:25;101533.50;;;24.27;29.91
36852;BME280;22784;52.476;13.424;2022-07-06T10:16:29;101517.47;;;24.27;29.78
36852;BME280;22784;52.476;13.424;2022-07-06T10:20:36;101543.97;;;24.41;29.99
36852;BME280;22784;52.476;13.424;2022-07-06T10:24:41;101523.84;;;24.37;29.97
36852;BME280;22784;52.476;13.424;2022-07-06T10:28:47;101541.31;;;24.56;30.79
36852;BME280;22784;52.476;13.424;2022-07-06T10:32:52;101512.97;;;24.63;30.83
36852;BME280;22784;52.476;13.424;2022-07-06T10:37:03;101527.69;;;24.72;30.95
36852;BME280;22784;52.476;13.424;2022-07-06T10:41:08;101538.34;;;24.83;30.74
36852;BME280;22784;52.476;13.424;2022-07-06T10:45:18;101534.00;;;24.82;30.68
36852;BME280;22784;52.476;13.424;2022-07-06T10:49:24;101536.91;;;24.87;31.42
36852;BME280;22784;52.476;13.424;2022-07-06T10:53:32;101532.78;;;25.31;30.85
36852;BME280;22784;52.476;13.424;2022-07-06T10:57:51;101525.28;;;25.90;30.36
36852;BME280;22784;52.476;13.424;2022-07-06T11:02:13;101526.31;;;26.36;29.28
36852;BME280;22784;52.476;13.424;2022-07-06T11:06:19;101526.88;;;26.75;27.20
36852;BME280;22784;52.476;13.424;2022-07-06T11:10:25;101519.41;;;27.27;26.62
36852;BME280;22784;52.476;13.424;2022-07-06T11:14:34;101520.84;;;27.63;26.89
36852;BME280;22784;52.476;13.424;2022-07-06T11:18:38;101518.44;;;28.02;25.65
36852;BME280;22784;52.476;13.424;2022-07-06T11:22:43;101488.59;;;27.53;25.81
36852;BME280;22784;52.476;13.424;2022-07-06T11:26:55;101511.28;;;26.89;26.57
36852;BME280;22784;52.476;13.424;2022-07-06T11:30:59;101518.00;;;26.27;27.66
36852;BME280;22784;52.476;13.424;2022-07-06T11:35:04;101512.31;;;26.07;28.76
36852;BME280;22784;52.476;13.424;2022-07-06T11:39:07;101504.78;;;25.69;29.05
36852;BME280;22784;52.476;13.424;2022-07-06T11:43:13;101515.88;;;25.63;29.44
36852;BME280;22784;52.476;13.424;2022-07-06T11:47:17;101511.34;;;25.66;29.58
36852;BME280;22784;52.476;13.424;2022-07-06T11:51:24;101498.03;;;25.76;29.19
36852;BME280;22784;52.476;13.424;2022-07-06T11:55:28;101507.13;;;25.85;28.91
36852;BME280;22784;52.476;13.424;2022-07-06T11:59:36;101506.88;;;26.18;28.54
36852;BME280;22784;52.476;13.424;2022-07-06T12:03:40;101500.75;;;26.84;27.95
36852;BME280;22784;52.476;13.424;2022-07-06T12:07:44;101494.63;;;27.98;26.11
36852;BME280;22784;52.476;13.424;2022-07-06T12:11:47;101498.75;;;28.34;25.09
36852;BME280;22784;52.476;13.424;2022-07-06T12:15:54;101497.75;;;28.05;25.66
36852;BME280;22784;52.476;13.424;2022-07-06T12:19:57;101496.31;;;27.58;26.29
36852;BME280;22784;52.476;13.424;2022-07-06T12:24:01;101506.94;;;27.28;26.58
36852;BME280;22784;52.476;13.424;2022-07-06T12:28:05;101492.53;;;26.80;27.23
36852;BME280;22784;52.476;13.424;2022-07-06T12:32:16;101502.50;;;26.46;27.67
36852;BME280;22784;52.476;13.424;2022-07-06T12:36:20;101499.03;;;26.22;28.37
36852;BME280;22784;52.476;13.424;2022-07-06T12:40:26;101493.66;;;26.68;28.03
36852;BME280;22784;52.476;13.424;2022-07-06T12:44:30;101487.78;;;27.27;27.48
36852;BME280;22784;52.476;13.424;2022-07-06T12:48:54;101491.34;;;27.27;27.26
36852;BME280;22784;52.476;13.424;2022-07-06T12:52:58;101483.28;;;27.35;27.02
36852;BME280;22784;52.476;13.424;2022-07-06T12:57:07;101482.34;;;27.44;26.88
36852;BME280;22784;52.476;13.424;2022-07-06T13:01:14;101457.00;;;26.92;27.33
36852;BME280;22784;52.476;13.424;2022-07-06T13:05:22;101474.16;;;26.59;28.23
36852;BME280;22784;52.476;13.424;2022-07-06T13:09:28;101487.44;;;26.44;28.96
36852;BME280;22784;52.476;13.424;2022-07-06T13:13:32;101478.66;;;26.36;29.14
36852;BME280;22784;52.476;13.424;2022-07-06T13:17:45;101485.72;;;26.17;29.12
36852;BME280;22784;52.476;13.424;2022-07-06T13:21:52;101474.47;;;25.97;28.26
36852;BME280;22784;52.476;13.424;2022-07-06T13:25:55;101480.81;;;26.27;28.18
36852;BME280;22784;52.476;13.424;2022-07-06T13:29:59;101461.94;;;26.42;28.23
36852;BME280;22784;52.476;13.424;2022-07-06T13:34:03;101476.47;;;26.61;28.02
36852;BME280;22784;52.476;13.424;2022-07-06T13:38:09;101471.44;;;26.30;28.20
36852;BME280;22784;52.476;13.424;2022-07-06T13:42:12;101476.97;;;25.95;28.38
36852;BME280;22784;52.476;13.424;2022-07-06T13:46:16;101477.94;;;25.62;28.60
36852;BME280;22784;52.476;13.424;2022-07-06T13:50:20;101481.16;;;25.46;28.69
36852;BME280;22784;52.476;13.424;2022-07-06T13:54:26;101473.72;;;25.28;29.09
36852;BME280;22784;52.476;13.424;2022-07-06T13:58:30;101479.97;;;25.23;29.50
36852;BME280;22784;52.476;13.424;2022-07-06T14:02:33;101485.66;;;25.14;29.61
36852;BME280;22784;52.476;13.424;2022-07-06T14:06:37;101473.38;;;25.12;30.17
36852;BME280;22784;52.476;13.424;2022-07-06T14:10:43;101469.09;;;25.25;30.03
36852;BME280;22784;52.476;13.424;2022-07-06T14:14:47;101463.94;;;25.09;30.35
36852;BME280;22784;52.476;13.424;2022-07-06T14:18:50;101439.59;;;25.01;29.29
36852;BME280;22784;52.476;13.424;2022-07-06T14:22:55;101468.22;;;25.19;28.78
36852;BME280;22784;52.476;13.424;2022-07-06T14:27:01;101467.72;;;25.21;28.65
36852;BME280;22784;52.476;13.424;2022-07-06T14:31:05;101461.47;;;25.26;28.88
36852;BME280;22784;52.476;13.424;2022-07-06T14:35:08;101464.84;;;25.45;28.67
36852;BME280;22784;52.476;13.424;2022-07-06T14:39:12;101433.50;;;25.26;28.85
36852;BME280;22784;52.476;13.424;2022-07-06T14:43:18;101464.84;;;25.45;28.33
36852;BME280;22784;52.476;13.424;2022-07-06T14:47:21;101463.03;;;25.27;28.84
36852;BME280;22784;52.476;13.424;2022-07-06T14:51:25;101460.38;;;25.09;28.95
36852;BME280;22784;52.476;13.424;2022-07-06T14:55:29;101458.28;;;24.95;29.74
36852;BME280;22784;52.476;13.424;2022-07-06T14:59:35;101467.78;;;24.88;29.55
36852;BME280;22784;52.476;13.424;2022-07-06T15:03:39;101459.25;;;24.68;30.11
36852;BME280;22784;52.476;13.424;2022-07-06T15:07:42;101470.22;;;24.71;30.48
36852;BME280;22784;52.476;13.424;2022-07-06T15:11:46;101470.66;;;24.55;30.40
36852;BME280;22784;52.476;13.424;2022-07-06T15:15:52;101420.84;;;24.12;30.99
36852;BME280;22784;52.476;13.424;2022-07-06T15:19:58;101481.28;;;24.33;30.97
36852;BME280;22784;52.476;13.424;2022-07-06T15:24:02;101455.16;;;24.12;31.34
36852;BME280;22784;52.476;13.424;2022-07-06T15:28:06;101456.09;;;24.09;31.68
36852;BME280;22784;52.476;13.424;2022-07-06T15:32:12;101477.50;;;24.12;32.44
36852;BME280;22784;52.476;13.424;2022-07-06T15:36:16;101465.28;;;24.00;32.51
36852;BME280;22784;52.476;13.424;2022-07-06T15:40:21;101464.97;;;23.98;32.98
36852;BME280;22784;52.476;13.424;2022-07-06T15:44:25;101471.75;;;24.06;32.58
36852;BME280;22784;52.476;13.424;2022-07-06T15:48:32;101459.19;;;24.20;32.39
36852;BME280;22784;52.476;13.424;2022-07-06T15:52:36;101441.44;;;24.32;32.31
36852;BME280;22784;52.476;13.424;2022-07-06T15:56:40;101412.84;;;24.37;32.13
36852;BME280;22784;52.476;13.424;2022-07-06T16:00:43;101425.50;;;24.47;31.83
36852;BME280;22784;52.476;13.424;2022-07-06T16:04:50;101449.97;;;24.62;31.71
36852;BME280;22784;52.476;13.424;2022-07-06T16:08:57;101420.72;;;24.39;32.13
36852;BME280;22784;52.476;13.424;2022-07-06T16:13:08;101441.38;;;24.65;31.96
36852;BME280;22784;52.476;13.424;2022-07-06T16:17:13;101393.53;;;24.48;32.10
36852;BME280;22784;52.476;13.424;2022-07-06T16:21:20;101387.50;;;24.41;31.82
36852;BME280;22784;52.476;13.424;2022-07-06T16:25:23;101400.88;;;24.37;31.73
36852;BME280;22784;52.476;13.424;2022-07-06T16:29:27;101398.81;;;24.14;31.88
36852;BME280;22784;52.476;13.424;2022-07-06T16:33:31;101399.81;;;24.01;31.71
36852;BME280;22784;52.476;13.424;2022-07-06T16:37:39;101438.50;;;24.18;31.61
36852;BME280;22784;52.476;13.424;2022-07-06T16:41:43;101425.19;;;24.13;30.93
36852;BME280;22784;52.476;13.424;2022-07-06T16:45:49;101412.16;;;24.09;31.40
36852;BME280;22784;52.476;13.424;2022-07-06T16:49:53;101410.97;;;24.01;31.33
36852;BME280;22784;52.476;13.424;2022-07-06T16:54:00;101409.19;;;23.80;31.26
36852;BME280;22784;52.476;13.424;2022-07-06T16:58:04;101410.91;;;23.68;32.23
36852;BME280;22784;52.476;13.424;2022-07-06T17:02:07;101405.19;;;23.63;32.52
36852;BME280;22784;52.476;13.424;2022-07-06T17:06:11;101399.66;;;23.54;31.53
36852;BME280;22784;52.476;13.424;2022-07-06T17:10:17;101403.41;;;23.33;32.12
36852;BME280;22784;52.476;13.424;2022-07-06T17:14:21;101400.63;;;23.33;31.90
36852;BME280;22784;52.476;13.424;2022-07-06T17:18:25;101384.66;;;23.24;32.39
36852;BME280;22784;52.476;13.424;2022-07-06T17:22:28;101390.84;;;23.28;32.48
36852;BME280;22784;52.476;13.424;2022-07-06T17:26:35;101357.53;;;23.15;32.33
36852;BME280;22784;52.476;13.424;2022-07-06T17:30:39;101368.53;;;23.28;32.33
36852;BME280;22784;52.476;13.424;2022-07-06T17:34:48;101363.44;;;23.26;32.87
36852;BME280;22784;52.476;13.424;2022-07-06T17:38:52;101355.53;;;23.25;32.60
36852;BME280;22784;52.476;13.424;2022-07-06T17:42:59;101390.97;;;23.52;32.91
36852;BME280;22784;52.476;13.424;2022-07-06T17:47:03;101393.16;;;23.48;33.12
36852;BME280;22784;52.476;13.424;2022-07-06T17:51:07;101397.78;;;23.42;34.09
36852;BME280;22784;52.476;13.424;2022-07-06T17:55:12;101353.38;;;23.11;34.00
36852;BME280;22784;52.476;13.424;2022-07-06T17:59:26;101388.19;;;23.34;33.61
36852;BME280;22784;52.476;13.424;2022-07-06T18:03:30;101373.66;;;23.20;33.81
36852;BME280;22784;52.476;13.424;2022-07-06T18:07:34;101340.41;;;22.90;34.67
36852;BME280;22784;52.476;13.424;2022-07-06T18:11:37;101387.16;;;23.13;34.70
36852;BME280;22784;52.476;13.424;2022-07-06T18:15:43;101373.97;;;23.04;34.80
36852;BME280;22784;52.476;13.424;2022-07-06T18:19:47;101385.63;;;23.03;34.82
36852;BME280;22784;52.476;13.424;2022-07-06T18:23:50;101387.00;;;23.07;34.92
36852;BME280;22784;52.476;13.424;2022-07-06T18:27:54;101381.41;;;23.07;34.99
36852;BME280;22784;52.476;13.424;2022-07-06T18:32:00;101385.28;;;23.01;35.42
36852;BME280;22784;52.476;13.424;2022-07-06T18:36:05;101354.03;;;22.78;35.31
36852;BME280;22784;52.476;13.424;2022-07-06T18:40:10;101358.31;;;22.70;35.60
36852;BME280;22784;52.476;13.424;2022-07-06T18:44:13;101353.22;;;22.69;35.90
36852;BME280;22784;52.476;13.424;2022-07-06T18:48:19;101376.94;;;22.73;35.89
36852;BME280;22784;52.476;13.424;2022-07-06T18:52:23;101350.56;;;22.56;36.23
36852;BME280;22784;52.476;13.424;2022-07-06T18:56:27;101345.16;;;22.53;36.43
36852;BME280;22784;52.476;13.424;2022-07-06T19:00:30;101323.16;;;22.36;36.18
36852;BME280;22784;52.476;13.424;2022-07-06T19:04:37;101373.97;;;22.68;36.19
36852;BME280;22784;52.476;13.424;2022-07-06T19:08:41;101361.09;;;22.70;36.23
36852;BME280;22784;52.476;13.424;2022-07-06T19:12:44;101368.25;;;22.71;36.56
36852;BME280;22784;52.476;13.424;2022-07-06T19:16:48;101336.94;;;22.58;36.39
36852;BME280;22784;52.476;13.424;2022-07-06T19:20:58;101366.25;;;22.72;36.56
36852;BME280;22784;52.476;13.424;2022-07-06T19:25:02;101371.47;;;22.70;36.62
36852;BME280;22784;52.476;13.424;2022-07-06T19:29:08;101362.34;;;22.60;36.31
36852;BME280;22784;52.476;13.424;2022-07-06T19:33:12;101365.91;;;22.61;36.63
36852;BME280;22784;52.476;13.424;2022-07-06T19:37:18;101358.00;;;22.50;36.28
36852;BME280;22784;52.476;13.424;2022-07-06T19:41:23;101324.03;;;22.15;36.89
36852;BME280;22784;52.476;13.424;2022-07-06T19:45:26;101363.56;;;22.32;36.57
36852;BME280;22784;52.476;13.424;2022-07-06T19:49:30;101344.16;;;22.10;36.60
36852;BME280;22784;52.476;13.424;2022-07-06T19:53:37;101322.09;;;21.85;36.67
36852;BME280;22784;52.476;13.424;2022-07-06T19:57:45;101345.16;;;21.94;36.96
36852;BME280;22784;52.476;13.424;2022-07-06T20:01:58;101268.09;;;21.33;37.13
36852;BME280;22784;52.476;13.424;2022-07-06T20:06:03;101353.63;;;21.82;37.85
36852;BME280;22784;52.476;13.424;2022-07-06T20:10:09;101345.53;;;21.75;37.77
36852;BME280;22784;52.476;13.424;2022-07-06T20:14:13;101365.34;;;21.77;37.86
36852;BME280;22784;52.476;13.424;2022-07-06T20:18:17;101295.41;;;21.26;38.19
36852;BME280;22784;52.476;13.424;2022-07-06T20:22:21;101356.50;;;21.69;37.90
36852;BME280;22784;52.476;13.424;2022-07-06T20:26:28;101360.22;;;21.66;38.13
36852;BME280;22784;52.476;13.424;2022-07-06T20:30:32;101313.50;;;21.30;38.20
36852;BME280;22784;52.476;13.424;2022-07-06T20:34:36;101347.56;;;21.43;38.50
36852;BME280;22784;52.476;13.424;2022-07-06T20:38:42;101299.44;;;21.03;38.51
36852;BME280;22784;52.476;13.424;2022-07-06T20:42:51;101344.34;;;21.23;38.94
36852;BME280;22784;52.476;13.424;2022-07-06T20:46:55;101338.28;;;21.15;38.85
36852;BME280;22784;52.476;13.424;2022-07-06T20:50:58;101281.34;;;20.76;38.65
36852;BME280;22784;52.476;13.424;2022-07-06T20:55:03;101336.16;;;21.19;38.77
36852;BME280;22784;52.476;13.424;2022-07-06T20:59:12;101298.25;;;20.91;38.71
36852;BME280;22784;52.476;13.424;2022-07-06T21:03:16;101336.94;;;21.20;38.83
36852;BME280;22784;52.476;13.424;2022-07-06T21:07:19;101324.03;;;21.13;39.08